createdAt,value
2023-04-07T00:00:04.493Z,95.43
2023-04-07T00:02:32.410Z,93.29
2023-04-07T00:04:59.178Z,92.32
2023-04-07T00:07:25.742Z,95.42
2023-04-07T00:09:52.279Z,92.21
2023-04-07T00:12:18.764Z,92.56
2023-04-07T00:14:45.370Z,92.19
2023-04-07T00:17:11.868Z,92.31
2023-04-07T00:19:38.506Z,93.17
2023-04-07T00:22:05.010Z,95.99
2023-04-07T00:24:34.604Z,97.18
2023-04-07T00:27:02.157Z,98.89
2023-04-07T00:29:28.768Z,100.00
2023-04-07T00:31:55.288Z,97.48
2023-04-07T00:34:21.831Z,97.13
2023-04-07T00:36:52.142Z,96.65
2023-04-07T00:39:19.728Z,96.85
2023-04-07T00:41:47.188Z,95.99
2023-04-07T00:44:14.333Z,99.59
2023-04-07T00:46:41.527Z,95.34
2023-04-07T00:49:10.572Z,97.37
2023-04-07T00:51:38.000Z,97.92
2023-04-07T00:54:04.778Z,98.70
2023-04-07T00:56:32.062Z,99.61
2023-04-07T00:58:58.625Z,98.51
2023-04-07T01:01:33.315Z,98.04
2023-04-07T01:04:09.872Z,93.23
2023-04-07T01:06:44.008Z,95.58
2023-04-07T01:09:35.075Z,93.66
2023-04-07T01:12:29.038Z,97.69
2023-04-07T01:15:00.379Z,100.00
2023-04-07T01:17:28.494Z,100.00
2023-04-07T01:20:08.122Z,100.00
2023-04-07T01:22:47.629Z,99.92
2023-04-07T01:25:53.871Z,98.23
2023-04-07T01:28:39.034Z,98.16
2023-04-07T01:31:07.657Z,96.12
2023-04-07T01:33:36.645Z,94.75
2023-04-07T01:36:07.175Z,97.87
2023-04-07T01:38:34.921Z,98.16
2023-04-07T01:41:02.921Z,99.67
2023-04-07T01:43:31.112Z,98.18
2023-04-07T01:45:57.981Z,98.28
2023-04-07T01:48:25.904Z,97.68
2023-04-07T01:50:53.279Z,99.35
2023-04-07T01:53:20.374Z,100.00
2023-04-07T01:55:46.886Z,98.15
2023-04-07T01:58:13.468Z,98.29
2023-04-07T02:00:40.964Z,100.00
2023-04-07T02:03:20.681Z,99.47
2023-04-07T02:05:56.502Z,94.44
2023-04-07T02:08:28.816Z,97.87
2023-04-07T02:10:59.469Z,98.81
2023-04-07T02:13:27.547Z,97.33
2023-04-07T02:15:56.328Z,98.96
2023-04-07T02:18:25.100Z,96.97
2023-04-07T02:20:52.677Z,99.36
2023-04-07T02:23:19.377Z,97.85
2023-04-07T02:25:46.241Z,97.75
2023-04-07T02:28:12.708Z,98.37
2023-04-07T02:30:40.051Z,99.48
2023-04-07T02:33:06.647Z,100.00
2023-04-07T02:35:33.313Z,100.00
2023-04-07T02:37:59.819Z,100.00
2023-04-07T02:40:26.357Z,100.00
2023-04-07T02:42:52.874Z,100.00
2023-04-07T02:45:19.427Z,99.02
2023-04-07T02:47:46.179Z,98.83
2023-04-07T02:50:12.741Z,100.00
2023-04-07T02:52:39.264Z,100.00
2023-04-07T02:55:07.301Z,100.00
2023-04-07T02:57:33.873Z,100.00
2023-04-07T03:00:00.514Z,100.00
2023-04-07T03:02:27.223Z,100.00
2023-04-07T03:04:54.006Z,100.00
2023-04-07T03:07:20.655Z,100.00
2023-04-07T03:09:47.202Z,100.00
2023-04-07T03:12:13.760Z,100.00
2023-04-07T03:14:40.274Z,100.00
2023-04-07T03:17:06.924Z,100.00
2023-04-07T03:19:33.543Z,100.00
2023-04-07T03:22:00.166Z,100.00
2023-04-07T03:24:27.091Z,100.00
2023-04-07T03:26:53.662Z,100.00
2023-04-07T03:29:20.275Z,100.00
2023-04-07T03:31:46.799Z,100.00
2023-04-07T03:34:13.741Z,100.00
2023-04-07T03:36:40.359Z,100.00
2023-04-07T03:39:06.877Z,100.00
2023-04-07T03:41:33.783Z,100.00
2023-04-07T03:44:00.488Z,100.00
2023-04-07T03:46:27.221Z,100.00
2023-04-07T03:48:53.999Z,100.00
2023-04-07T03:51:20.715Z,100.00
2023-04-07T03:53:47.297Z,100.00
2023-04-07T03:56:13.748Z,100.00
2023-04-07T03:58:42.659Z,100.00
2023-04-07T04:01:09.056Z,100.00
2023-04-07T04:03:35.906Z,100.00
2023-04-07T04:06:02.564Z,100.00
2023-04-07T04:08:29.149Z,100.00
2023-04-07T04:10:55.876Z,100.00
2023-04-07T04:13:22.269Z,100.00
2023-04-07T04:15:48.674Z,100.00
2023-04-07T04:18:15.562Z,100.00
2023-04-07T04:20:42.981Z,100.00
2023-04-07T04:23:09.445Z,100.00
2023-04-07T04:25:35.923Z,100.00
2023-04-07T04:28:02.376Z,100.00
2023-04-07T04:30:28.847Z,100.00
2023-04-07T04:32:55.511Z,100.00
2023-04-07T04:35:21.987Z,100.00
2023-04-07T04:37:48.584Z,100.00
2023-04-07T04:40:15.130Z,100.00
2023-04-07T04:42:41.698Z,100.00
2023-04-07T04:45:08.446Z,100.00
2023-04-07T04:47:34.888Z,100.00
2023-04-07T04:50:01.443Z,100.00
2023-04-07T04:52:28.835Z,100.00
2023-04-07T04:54:55.393Z,100.00
2023-04-07T04:57:21.807Z,100.00
2023-04-07T04:59:48.280Z,100.00
2023-04-07T05:02:14.793Z,100.00
2023-04-07T05:04:41.512Z,100.00
2023-04-07T05:07:08.001Z,100.00
2023-04-07T05:09:34.400Z,100.00
2023-04-07T05:12:01.846Z,100.00
2023-04-07T05:14:28.274Z,100.00
2023-04-07T05:16:54.753Z,100.00
2023-04-07T05:19:21.234Z,100.00
2023-04-07T05:21:47.690Z,100.00
2023-04-07T05:24:14.071Z,100.00
2023-04-07T05:26:40.585Z,100.00
2023-04-07T05:29:06.980Z,100.00
2023-04-07T05:31:36.074Z,100.00
2023-04-07T05:34:02.713Z,100.00
2023-04-07T05:36:29.244Z,100.00
2023-04-07T05:38:55.760Z,99.40
2023-04-07T05:41:22.250Z,100.00
2023-04-07T05:43:48.679Z,97.34
2023-04-07T05:46:15.167Z,93.61
2023-04-07T05:48:42.045Z,93.30
2023-04-07T05:51:08.472Z,90.74
2023-04-07T05:53:34.889Z,90.71
2023-04-07T05:56:01.430Z,88.92
2023-04-07T05:58:28.129Z,86.04
2023-04-07T06:00:54.597Z,83.47
2023-04-07T06:03:21.368Z,84.06
2023-04-07T06:05:47.953Z,83.49
2023-04-07T06:08:14.351Z,81.14
2023-04-07T06:10:41.753Z,79.57
2023-04-07T06:13:08.156Z,77.04
2023-04-07T06:15:35.042Z,76.66
2023-04-07T06:18:01.478Z,77.55
2023-04-07T06:20:28.197Z,74.94
2023-04-07T06:22:55.015Z,73.39
2023-04-07T06:25:21.877Z,71.54
2023-04-07T06:27:48.405Z,67.44
2023-04-07T06:30:14.962Z,60.84
2023-04-07T06:32:41.517Z,59.19
2023-04-07T06:35:08.135Z,58.80
2023-04-07T06:37:34.533Z,57.87
2023-04-07T06:40:01.045Z,58.82
2023-04-07T06:42:28.448Z,58.90
2023-04-07T06:44:54.970Z,58.19
2023-04-07T06:47:21.884Z,58.43
2023-04-07T06:49:48.396Z,58.11
2023-04-07T06:52:15.527Z,57.90
2023-04-07T06:54:42.057Z,58.10
2023-04-07T06:57:12.055Z,57.35
2023-04-07T06:59:39.209Z,57.19
2023-04-07T07:02:07.581Z,56.86
2023-04-07T07:04:35.402Z,56.31
2023-04-07T07:07:02.478Z,55.78
2023-04-07T07:09:28.975Z,53.76
2023-04-07T07:11:56.083Z,53.99
2023-04-07T07:14:22.638Z,53.77
2023-04-07T07:16:50.218Z,52.86
2023-04-07T07:19:16.765Z,51.37
2023-04-07T07:21:43.345Z,51.52
2023-04-07T07:24:09.872Z,51.18
2023-04-07T07:26:36.454Z,50.64
2023-04-07T07:29:02.957Z,49.71
2023-04-07T07:31:31.043Z,47.81
2023-04-07T07:33:57.664Z,46.53
2023-04-07T07:36:24.226Z,45.58
2023-04-07T07:38:51.755Z,44.84
2023-04-07T07:41:18.356Z,44.73
2023-04-07T07:43:44.926Z,45.35
2023-04-07T07:46:11.468Z,44.32
2023-04-07T07:48:37.979Z,43.41
2023-04-07T07:51:04.906Z,42.08
2023-04-07T07:53:31.466Z,43.51
2023-04-07T07:55:58.117Z,43.72
2023-04-07T07:58:24.764Z,43.59
2023-04-07T08:00:51.349Z,42.71
2023-04-07T08:03:19.972Z,41.01
2023-04-07T08:05:48.421Z,40.74
2023-04-07T08:08:14.930Z,37.76
2023-04-07T08:10:41.520Z,39.35
2023-04-07T08:13:08.065Z,37.19
2023-04-07T08:15:34.656Z,36.52
2023-04-07T08:18:04.346Z,35.94
2023-04-07T08:20:31.627Z,36.13
2023-04-07T08:22:58.422Z,34.17
2023-04-07T08:25:24.959Z,33.55
2023-04-07T08:27:51.580Z,32.35
2023-04-07T08:30:18.239Z,32.25
2023-04-07T08:32:45.505Z,32.80
2023-04-07T08:35:12.514Z,32.61
2023-04-07T08:37:41.122Z,32.96
2023-04-07T08:40:08.100Z,33.93
2023-04-07T08:42:36.275Z,33.70
2023-04-07T08:45:05.883Z,34.00
2023-04-07T08:47:34.676Z,34.12
2023-04-07T08:50:03.927Z,34.06
2023-04-07T08:52:48.419Z,33.61
2023-04-07T08:55:15.335Z,32.73
2023-04-07T08:57:42.879Z,33.15
2023-04-07T09:00:10.231Z,33.63
2023-04-07T09:02:38.700Z,32.48
2023-04-07T09:05:07.631Z,32.36
2023-04-07T09:07:35.837Z,33.20
2023-04-07T09:10:02.715Z,32.48
2023-04-07T09:12:29.888Z,32.32
2023-04-07T09:14:56.555Z,30.79
2023-04-07T09:17:24.918Z,31.16
2023-04-07T09:19:56.081Z,30.43
2023-04-07T09:22:35.936Z,30.07
2023-04-07T09:25:29.930Z,31.07
2023-04-07T09:28:02.217Z,31.01
2023-04-07T09:30:29.883Z,30.36
2023-04-07T09:32:57.236Z,29.06
2023-04-07T09:35:24.762Z,28.25
2023-04-07T09:38:03.608Z,26.87
2023-04-07T09:40:30.443Z,26.89
2023-04-07T09:42:58.675Z,25.52
2023-04-07T09:45:34.432Z,24.04
2023-04-07T09:48:18.104Z,23.35
2023-04-07T09:50:49.357Z,23.90
2023-04-07T09:53:17.060Z,23.37
2023-04-07T09:55:44.210Z,22.13
2023-04-07T09:58:14.529Z,22.18
2023-04-07T10:00:42.284Z,21.28
2023-04-07T10:03:09.412Z,20.79
2023-04-07T10:05:36.734Z,19.18
2023-04-07T10:08:06.057Z,19.83
2023-04-07T10:10:33.150Z,19.63
2023-04-07T10:12:59.846Z,19.97
2023-04-07T10:15:26.719Z,21.31
2023-04-07T10:17:53.991Z,20.52
2023-04-07T10:20:23.156Z,20.80
2023-04-07T10:22:53.785Z,20.11
2023-04-07T10:25:24.416Z,20.06
2023-04-07T10:27:59.223Z,19.35
2023-04-07T10:30:28.982Z,17.97
2023-04-07T10:32:55.931Z,19.02
2023-04-07T10:35:23.333Z,18.61
2023-04-07T10:38:08.233Z,17.54
2023-04-07T10:40:35.969Z,17.10
2023-04-07T10:43:02.865Z,15.78
2023-04-07T10:45:54.277Z,16.36
2023-04-07T10:48:21.958Z,14.77
2023-04-07T10:51:08.026Z,14.82
2023-04-07T10:53:34.951Z,15.87
2023-04-07T10:56:01.774Z,16.34
2023-04-07T10:58:32.281Z,14.97
2023-04-07T11:01:01.605Z,15.15
2023-04-07T11:03:30.249Z,17.69
2023-04-07T11:06:10.577Z,17.81
2023-04-07T11:08:39.373Z,15.93
2023-04-07T11:11:09.322Z,16.24
2023-04-07T11:13:47.912Z,17.58
2023-04-07T11:16:16.625Z,17.14
2023-04-07T11:18:44.304Z,18.36
2023-04-07T11:21:11.141Z,19.21
2023-04-07T11:23:42.492Z,21.22
2023-04-07T11:26:11.513Z,18.76
2023-04-07T11:28:52.817Z,17.32
2023-04-07T11:31:27.420Z,14.71
2023-04-07T11:34:01.685Z,15.46
2023-04-07T11:36:31.008Z,15.97
2023-04-07T11:38:58.094Z,15.92
2023-04-07T11:41:30.721Z,15.42
2023-04-07T11:44:11.086Z,16.23
2023-04-07T11:46:53.656Z,16.06
2023-04-07T11:49:20.682Z,14.69
2023-04-07T11:51:47.311Z,14.57
2023-04-07T11:54:13.903Z,14.17
2023-04-07T11:56:46.034Z,13.58
2023-04-07T11:59:20.953Z,14.00
2023-04-07T12:01:48.235Z,14.72
2023-04-07T12:04:16.332Z,15.07
2023-04-07T12:06:43.922Z,15.64
2023-04-07T12:09:34.798Z,15.91
2023-04-07T12:12:02.695Z,16.39
2023-04-07T12:14:29.443Z,16.19
2023-04-07T12:16:57.767Z,15.84
2023-04-07T12:19:28.607Z,15.93
2023-04-07T12:21:56.840Z,16.96
2023-04-07T12:24:23.978Z,17.25
2023-04-07T12:26:50.585Z,15.54
2023-04-07T12:29:17.621Z,16.33
2023-04-07T12:31:44.173Z,16.34
2023-04-07T12:34:10.788Z,17.47
2023-04-07T12:36:37.338Z,18.97
2023-04-07T12:39:03.870Z,19.47
2023-04-07T12:41:31.352Z,20.13
2023-04-07T12:43:57.913Z,19.41
2023-04-07T12:46:24.606Z,20.33
2023-04-07T12:48:51.808Z,22.01
2023-04-07T12:51:18.553Z,20.64
2023-04-07T12:53:45.347Z,19.29
2023-04-07T12:56:13.241Z,19.04
2023-04-07T12:58:40.764Z,17.21
2023-04-07T13:01:07.906Z,18.46
2023-04-07T13:03:34.630Z,18.18
2023-04-07T13:06:01.642Z,19.05
2023-04-07T13:08:29.308Z,19.21
2023-04-07T13:10:56.862Z,21.26
2023-04-07T13:13:24.116Z,21.20
2023-04-07T13:15:50.813Z,18.33
2023-04-07T13:18:17.450Z,17.66
2023-04-07T13:20:54.374Z,17.23
2023-04-07T13:23:42.020Z,17.87
2023-04-07T13:26:10.225Z,15.75
2023-04-07T13:28:36.779Z,15.39
2023-04-07T13:31:03.651Z,15.04
2023-04-07T13:33:30.187Z,15.11
2023-04-07T13:35:56.942Z,16.40
2023-04-07T13:38:24.526Z,17.77
2023-04-07T13:40:51.094Z,21.89
2023-04-07T13:43:19.082Z,24.99
2023-04-07T13:45:48.081Z,26.68
2023-04-07T13:48:14.809Z,27.80
2023-04-07T13:50:41.295Z,29.89
2023-04-07T13:53:08.068Z,29.70
2023-04-07T13:55:34.611Z,29.05
2023-04-07T13:58:01.326Z,30.05
2023-04-07T14:00:28.056Z,32.55
2023-04-07T14:02:56.136Z,33.24
2023-04-07T14:05:23.263Z,34.20
2023-04-07T14:07:51.059Z,34.76
2023-04-07T14:10:17.821Z,34.19
2023-04-07T14:12:44.375Z,33.94
2023-04-07T14:15:11.065Z,34.25
2023-04-07T14:17:37.612Z,35.06
2023-04-07T14:20:04.654Z,37.09
2023-04-07T14:22:31.460Z,37.38
2023-04-07T14:24:58.107Z,36.68
2023-04-07T14:27:24.644Z,36.85
2023-04-07T14:29:51.204Z,37.50
2023-04-07T14:32:17.719Z,37.65
2023-04-07T14:34:44.248Z,36.98
2023-04-07T14:37:11.826Z,37.36
2023-04-07T14:39:39.470Z,37.06
2023-04-07T14:42:07.496Z,37.51
2023-04-07T14:44:34.043Z,38.13
2023-04-07T14:47:00.554Z,38.42
2023-04-07T14:49:28.589Z,38.38
2023-04-07T14:51:55.175Z,38.25
2023-04-07T14:54:21.699Z,38.65
2023-04-07T14:56:48.267Z,38.80
2023-04-07T14:59:14.868Z,38.59
2023-04-07T15:01:41.471Z,37.84
2023-04-07T15:04:08.148Z,39.19
2023-04-07T15:06:34.757Z,39.53
2023-04-07T15:09:01.293Z,39.46
2023-04-07T15:11:27.771Z,39.87
2023-04-07T15:13:54.479Z,39.71
2023-04-07T15:16:21.059Z,40.21
2023-04-07T15:18:48.572Z,40.22
2023-04-07T15:21:15.829Z,40.67
2023-04-07T15:23:42.762Z,40.95
2023-04-07T15:26:10.120Z,41.73
2023-04-07T15:28:37.028Z,41.62
2023-04-07T15:31:08.270Z,41.70
2023-04-07T15:33:40.009Z,41.28
2023-04-07T15:36:08.440Z,41.20
2023-04-07T15:38:35.601Z,41.68
2023-04-07T15:41:02.201Z,41.57
2023-04-07T15:43:29.133Z,41.58
2023-04-07T15:45:57.328Z,41.04
2023-04-07T15:48:24.223Z,41.63
2023-04-07T15:50:51.955Z,41.42
2023-04-07T15:53:18.531Z,41.48
2023-04-07T15:55:45.530Z,41.40
2023-04-07T15:58:12.141Z,41.13
2023-04-07T16:00:39.528Z,41.14
2023-04-07T16:03:06.329Z,40.65
2023-04-07T16:05:33.015Z,41.43
2023-04-07T16:07:59.563Z,41.38
2023-04-07T16:10:26.119Z,41.25
2023-04-07T16:12:52.707Z,41.41
2023-04-07T16:15:28.875Z,41.77
2023-04-07T16:18:07.487Z,42.21
2023-04-07T16:20:34.018Z,42.27
2023-04-07T16:23:00.580Z,43.10
2023-04-07T16:25:27.228Z,43.02
2023-04-07T16:27:53.954Z,43.21
2023-04-07T16:30:20.831Z,43.64
2023-04-07T16:32:47.544Z,43.86
2023-04-07T16:35:15.151Z,43.33
2023-04-07T16:37:42.506Z,43.48
2023-04-07T16:40:10.118Z,43.43
2023-04-07T16:43:37.772Z,43.83
2023-04-07T16:46:06.118Z,43.36
2023-04-07T16:48:33.236Z,42.84
2023-04-07T16:51:00.181Z,42.80
2023-04-07T16:53:26.814Z,43.47
2023-04-07T16:55:53.392Z,43.54
2023-04-07T16:58:21.164Z,43.55
2023-04-07T17:00:47.685Z,43.81
2023-04-07T17:03:17.569Z,43.99
2023-04-07T17:05:48.273Z,44.22
2023-04-07T17:08:14.793Z,44.42
2023-04-07T17:10:41.336Z,44.83
2023-04-07T17:13:07.856Z,45.12
2023-04-07T17:15:38.217Z,45.81
2023-04-07T17:18:04.958Z,45.25
2023-04-07T17:20:31.492Z,45.84
2023-04-07T17:22:58.050Z,45.69
2023-04-07T17:25:24.892Z,46.82
2023-04-07T17:27:51.485Z,46.74
2023-04-07T17:30:18.472Z,46.09
2023-04-07T17:32:45.152Z,46.44
2023-04-07T17:35:11.772Z,47.25
2023-04-07T17:37:38.462Z,47.48
2023-04-07T17:40:05.824Z,48.22
2023-04-07T17:42:33.011Z,47.63
2023-04-07T17:44:59.554Z,48.23
2023-04-07T17:47:26.210Z,48.40
2023-04-07T17:49:52.966Z,48.49
2023-04-07T17:52:19.489Z,51.30
2023-04-07T17:54:46.271Z,52.40
2023-04-07T17:57:14.474Z,52.47
2023-04-07T17:59:41.187Z,53.32
2023-04-07T18:02:10.644Z,53.33
2023-04-07T18:04:37.931Z,55.83
2023-04-07T18:07:04.963Z,56.75
2023-04-07T18:09:32.545Z,58.01
2023-04-07T18:12:01.525Z,56.34
2023-04-07T18:14:28.886Z,56.73
2023-04-07T18:16:55.852Z,59.24
2023-04-07T18:19:25.466Z,58.97
2023-04-07T18:21:53.452Z,58.17
2023-04-07T18:24:20.917Z,59.15
2023-04-07T18:26:47.818Z,59.89
2023-04-07T18:29:14.924Z,61.48
2023-04-07T18:31:42.344Z,61.37
2023-04-07T18:34:10.299Z,60.66
2023-04-07T18:36:37.538Z,61.31
2023-04-07T18:39:04.876Z,59.40
2023-04-07T18:41:34.293Z,61.80
2023-04-07T18:44:01.266Z,60.09
2023-04-07T18:46:27.865Z,60.43
2023-04-07T18:48:54.502Z,61.59
2023-04-07T18:51:21.292Z,66.58
2023-04-07T18:53:48.045Z,65.48
2023-04-07T18:56:14.826Z,66.46
2023-04-07T18:58:44.915Z,66.50
2023-04-07T19:01:13.276Z,66.13
2023-04-07T19:03:40.781Z,64.94
2023-04-07T19:06:07.801Z,68.97
2023-04-07T19:08:36.147Z,68.69
2023-04-07T19:11:02.806Z,71.02
2023-04-07T19:13:29.326Z,71.08
2023-04-07T19:15:55.969Z,73.10
2023-04-07T19:18:22.756Z,71.90
2023-04-07T19:20:49.302Z,70.52
2023-04-07T19:23:15.855Z,72.11
2023-04-07T19:25:45.047Z,71.37
2023-04-07T19:28:12.299Z,75.01
2023-04-07T19:30:38.770Z,75.93
2023-04-07T19:33:05.616Z,73.42
2023-04-07T19:35:32.963Z,71.85
2023-04-07T19:37:59.637Z,73.05
2023-04-07T19:40:26.280Z,72.21
2023-04-07T19:42:54.719Z,70.69
2023-04-07T19:45:21.524Z,71.31
2023-04-07T19:47:48.393Z,74.26
2023-04-07T19:50:15.023Z,74.31
2023-04-07T19:52:43.580Z,75.02
2023-04-07T19:55:10.903Z,75.68
2023-04-07T19:57:38.393Z,74.49
2023-04-07T20:00:05.401Z,76.11
2023-04-07T20:02:32.213Z,77.49
2023-04-07T20:04:58.804Z,75.58
2023-04-07T20:07:25.376Z,76.03
2023-04-07T20:09:53.940Z,75.38
2023-04-07T20:12:20.906Z,78.02
2023-04-07T20:14:47.427Z,79.27
2023-04-07T20:17:13.947Z,81.85
2023-04-07T20:19:41.516Z,78.82
2023-04-07T20:22:08.830Z,78.96
2023-04-07T20:24:36.000Z,81.50
2023-04-07T20:27:02.761Z,83.00
2023-04-07T20:29:29.326Z,82.65
2023-04-07T20:31:55.941Z,85.73
2023-04-07T20:34:22.555Z,84.26
2023-04-07T20:36:49.276Z,83.66
2023-04-07T20:39:16.569Z,83.26
2023-04-07T20:41:45.051Z,83.27
2023-04-07T20:44:12.208Z,82.63
2023-04-07T20:46:38.898Z,85.40
2023-04-07T20:49:07.771Z,82.94
2023-04-07T20:51:37.289Z,86.71
2023-04-07T20:54:04.703Z,84.19
2023-04-07T20:56:31.933Z,86.34
2023-04-07T20:58:58.620Z,88.98
2023-04-07T21:01:25.467Z,86.24
2023-04-07T21:03:52.863Z,88.05
2023-04-07T21:06:19.470Z,88.36
2023-04-07T21:08:46.172Z,89.78
2023-04-07T21:11:12.779Z,93.25
2023-04-07T21:13:39.344Z,90.39
2023-04-07T21:16:06.155Z,90.88
2023-04-07T21:18:33.425Z,88.58
2023-04-07T21:21:02.096Z,87.04
2023-04-07T21:23:31.204Z,90.30
2023-04-07T21:26:02.261Z,88.96
2023-04-07T21:28:29.065Z,85.54
2023-04-07T21:30:56.677Z,86.96
2023-04-07T21:33:23.294Z,86.08
2023-04-07T21:35:51.211Z,89.20
2023-04-07T21:38:18.017Z,92.79
2023-04-07T21:40:45.030Z,92.41
2023-04-07T21:43:12.252Z,90.02
2023-04-07T21:45:39.138Z,94.29
2023-04-07T21:48:06.550Z,91.77
2023-04-07T21:50:33.356Z,90.72
2023-04-07T21:52:59.946Z,93.85
2023-04-07T21:55:27.259Z,91.28
2023-04-07T21:57:54.335Z,92.14
2023-04-07T22:00:21.784Z,91.65
2023-04-07T22:02:48.705Z,94.42
2023-04-07T22:05:16.109Z,96.04
2023-04-07T22:07:42.800Z,94.49
2023-04-07T22:10:09.746Z,95.96
2023-04-07T22:12:36.542Z,93.44
2023-04-07T22:15:03.321Z,93.08
2023-04-07T22:17:30.574Z,95.28
2023-04-07T22:19:57.188Z,93.51
2023-04-07T22:22:23.698Z,95.16
2023-04-07T22:24:50.321Z,95.47
2023-04-07T22:27:16.861Z,95.84
2023-04-07T22:29:43.418Z,94.78
2023-04-07T22:32:09.963Z,95.74
2023-04-07T22:34:36.543Z,94.32
2023-04-07T22:37:03.097Z,100.00
2023-04-07T22:39:29.686Z,100.00
2023-04-07T22:41:56.268Z,98.06
2023-04-07T22:44:22.776Z,100.00
2023-04-07T22:46:49.347Z,100.00
2023-04-07T22:49:16.170Z,100.00
2023-04-07T22:51:48.219Z,99.52
2023-04-07T22:54:15.884Z,100.00
2023-04-07T22:56:42.759Z,100.00
2023-04-07T22:59:09.225Z,100.00
2023-04-07T23:01:35.880Z,100.00
2023-04-07T23:04:02.420Z,100.00
2023-04-07T23:06:29.133Z,100.00
2023-04-07T23:08:56.471Z,100.00
2023-04-07T23:11:23.110Z,100.00
2023-04-07T23:13:49.929Z,100.00
2023-04-07T23:16:16.599Z,100.00
2023-04-07T23:18:45.815Z,100.00
2023-04-07T23:21:13.165Z,100.00
2023-04-07T23:23:39.670Z,100.00
2023-04-07T23:26:08.998Z,100.00
2023-04-07T23:28:35.845Z,100.00
2023-04-07T23:31:02.711Z,100.00
2023-04-07T23:33:31.649Z,100.00
2023-04-07T23:35:58.781Z,100.00
2023-04-07T23:38:25.943Z,100.00
2023-04-07T23:40:53.087Z,100.00
2023-04-07T23:43:19.654Z,100.00
2023-04-07T23:45:46.171Z,100.00
2023-04-07T23:48:12.657Z,100.00
2023-04-07T23:50:39.466Z,100.00
2023-04-07T23:53:06.288Z,100.00
2023-04-07T23:55:33.093Z,100.00
2023-04-07T23:57:59.663Z,100.00
